Time;durP1;ratioP1;P1;durP2;ratioP2;P2;SDS_P1;SDS_P2;PMS_P1;PMS_P2;Temp;Humidity;BMP_temperature;BMP_pressure;BME280_temperature;BME280_humidity;BME280_pressure;Samples;Min_cycle;Max_cycle;Signal;HPM_P1;HPM_P2
2023/08/15 00:02:11;;;;;;;;;;;;;;;20.38;100.00;99799.78;5054813;28;898;-56
2023/08/15 00:04:38;;;;;;;;;;;;;;;20.53;100.00;99771.81;5055112;28;835;-56
2023/08/15 00:07:05;;;;;;;;;;;;;;;20.47;100.00;99768.88;5054671;28;878;-57
2023/08/15 00:09:32;;;;;;;;;;;;;;;20.44;100.00;99767.00;5054659;28;930;-56
2023/08/15 00:12:01;;;;;;;;;;;;;;;20.49;100.00;99769.19;5054660;28;1894;-57
2023/08/15 00:14:28;;;;;;;;;;;;;;;20.64;100.00;99765.75;5054626;28;890;-57
2023/08/15 00:16:54;;;;;;;;;;;;;;;20.75;100.00;99777.25;5053193;28;1207;-57
2023/08/15 00:19:21;;;;;;;;;;;;;;;20.89;100.00;99773.75;5054545;28;876;-57
2023/08/15 00:21:48;;;;;;;;;;;;;;;21.09;100.00;99780.84;5052120;28;1231;-57
2023/08/15 00:24:15;;;;;;;;;;;;;;;21.28;100.00;99785.13;5054385;28;843;-57
2023/08/15 00:26:42;;;;;;;;;;;;;;;21.62;100.00;99788.69;5054264;28;804;-57
2023/08/15 00:29:08;;;;;;;;;;;;;;;21.80;100.00;99790.56;5054299;28;792;-59
2023/08/15 00:31:35;;;;;;;;;;;;;;;21.91;100.00;99829.41;5054464;28;1894;-57
2023/08/15 00:34:02;;;;;;;;;;;;;;;21.72;100.00;99817.50;5054190;28;967;-56
2023/08/15 00:36:29;;;;;;;;;;;;;;;21.58;100.00;99805.72;5054158;28;1177;-56
2023/08/15 00:38:56;;;;;;;;;;;;;;;21.46;100.00;99817.22;5052767;28;1313;-56
2023/08/15 00:41:22;;;;;;;;;;;;;;;21.48;100.00;99809.09;5054143;28;1011;-56
2023/08/15 00:43:49;;;;;;;;;;;;;;;21.49;100.00;99796.59;5053699;28;1289;-56
2023/08/15 00:46:16;;;;;;;;;;;;;;;21.58;100.00;99786.03;5054077;28;868;-57
2023/08/15 00:48:43;;;;;;;;;;;;;;;21.70;100.00;99775.03;5053933;28;852;-56
2023/08/15 00:51:09;;;;;;;;;;;;;;;21.78;100.00;99793.09;5053822;28;1918;-57
2023/08/15 00:53:37;;;;;;;;;;;;;;;21.83;100.00;99781.19;5053833;28;820;-56
2023/08/15 00:56:04;;;;;;;;;;;;;;;21.78;100.00;99779.03;5053883;28;859;-57
2023/08/15 00:58:31;;;;;;;;;;;;;;;21.70;100.00;99763.78;5053906;28;835;-57
2023/08/15 01:00:58;;;;;;;;;;;;;;;21.59;100.00;99756.69;5053741;28;863;-56
2023/08/15 01:03:24;;;;;;;;;;;;;;;21.46;100.00;99733.63;5053644;28;870;-57
2023/08/15 01:05:51;;;;;;;;;;;;;;;21.28;100.00;99726.09;5052393;28;852;-58
2023/08/15 01:08:18;;;;;;;;;;;;;;;21.15;100.00;99725.56;5053599;28;910;-57
2023/08/15 01:10:45;;;;;;;;;;;;;;;21.10;100.00;99700.91;5053416;28;1894;-57
2023/08/15 01:13:31;;;;;;;;;;;;;;;21.05;100.00;99710.00;5053510;28;875;-57
2023/08/15 01:15:59;;;;;;;;;;;;;;;21.12;100.00;99710.44;5053467;28;914;-59
2023/08/15 01:18:36;;;;;;;;;;;;;;;21.19;100.00;99692.44;5053430;28;928;-57
2023/08/15 01:21:04;;;;;;;;;;;;;;;21.26;100.00;99691.28;5053544;28;942;-57
2023/08/15 01:23:41;;;;;;;;;;;;;;;21.24;100.00;99710.66;5053512;28;812;-57
2023/08/15 01:26:08;;;;;;;;;;;;;;;21.24;100.00;99705.03;5053260;28;855;-59
2023/08/15 01:28:55;;;;;;;;;;;;;;;21.19;100.00;99684.00;5053031;28;807;-58
2023/08/15 01:31:35;;;;;;;;;;;;;;;21.11;100.00;99688.44;5052794;28;1886;-58
2023/08/15 01:34:11;;;;;;;;;;;;;;;21.09;100.00;99679.69;5052995;28;879;-57
2023/08/15 01:36:45;;;;;;;;;;;;;;;21.12;100.00;99681.53;5053084;28;861;-57
2023/08/15 01:39:14;;;;;;;;;;;;;;;21.10;100.00;99679.22;5052913;28;863;-57
2023/08/15 01:41:41;;;;;;;;;;;;;;;21.08;100.00;99667.69;5051574;28;1485;-57
2023/08/15 01:44:09;;;;;;;;;;;;;;;21.12;100.00;99675.91;5052708;28;1268;-57
2023/08/15 01:46:39;;;;;;;;;;;;;;;21.12;100.00;99679.53;5052871;28;980;-57
2023/08/15 01:49:09;;;;;;;;;;;;;;;21.15;100.00;99677.78;5052839;28;816;-57
2023/08/15 01:51:36;;;;;;;;;;;;;;;21.23;100.00;99686.63;5052650;28;1971;-57
2023/08/15 01:54:03;;;;;;;;;;;;;;;21.36;100.00;99684.34;5052779;28;1202;-56
2023/08/15 01:56:29;;;;;;;;;;;;;;;21.36;100.00;99690.75;5052582;28;1154;-57
2023/08/15 01:58:56;;;;;;;;;;;;;;;21.31;100.00;99688.56;5051392;28;926;-57
2023/08/15 02:01:23;;;;;;;;;;;;;;;21.27;100.00;99692.84;5052513;28;972;-57
2023/08/15 02:03:50;;;;;;;;;;;;;;;21.39;100.00;99683.38;5052517;28;810;-57
2023/08/15 02:06:17;;;;;;;;;;;;;;;21.47;100.00;99698.66;5051220;28;1540;-57
2023/08/15 02:08:42;;;;;;;;;;;;;;;21.60;100.00;99687.91;5052372;28;839;-57
2023/08/15 02:11:09;;;;;;;;;;;;;;;21.74;100.00;99696.88;5052319;28;1894;-57
2023/08/15 02:13:36;;;;;;;;;;;;;;;21.86;100.00;99706.31;5052293;28;976;-57
2023/08/15 02:16:02;;;;;;;;;;;;;;;21.91;100.00;99706.41;5052301;28;840;-57
2023/08/15 02:18:29;;;;;;;;;;;;;;;21.94;100.00;99713.09;5052162;28;918;-57
2023/08/15 02:20:56;;;;;;;;;;;;;;;21.99;100.00;99712.44;5052269;28;844;-57
2023/08/15 02:23:23;;;;;;;;;;;;;;;22.07;100.00;99710.00;5050850;28;1315;-57
2023/08/15 02:25:50;;;;;;;;;;;;;;;22.16;100.00;99709.91;5052392;28;848;-57
2023/08/15 02:28:17;;;;;;;;;;;;;;;22.21;100.00;99703.59;5052083;28;816;-57
2023/08/15 02:30:43;;;;;;;;;;;;;;;22.23;100.00;99703.91;5051982;28;1898;-57
2023/08/15 02:33:10;;;;;;;;;;;;;;;22.26;100.00;99694.50;5052021;28;808;-57
2023/08/15 02:35:39;;;;;;;;;;;;;;;22.21;100.00;99695.94;5051977;28;878;-58
2023/08/15 02:38:07;;;;;;;;;;;;;;;22.27;100.00;99700.91;5051982;28;894;-57
2023/08/15 02:40:33;;;;;;;;;;;;;;;22.36;100.00;99700.81;5051867;28;875;-57
2023/08/15 02:43:00;;;;;;;;;;;;;;;22.37;100.00;99699.56;5051385;28;1369;-57
2023/08/15 02:45:27;;;;;;;;;;;;;;;22.36;100.00;99706.44;5051765;28;895;-57
2023/08/15 02:47:54;;;;;;;;;;;;;;;22.43;100.00;99726.53;5051810;28;816;-57
2023/08/15 02:50:21;;;;;;;;;;;;;;;22.45;100.00;99714.78;5052209;28;1005;-56
2023/08/15 02:52:49;;;;;;;;;;;;;;;22.39;100.00;99714.69;5051751;28;864;-58
2023/08/15 02:55:15;;;;;;;;;;;;;;;22.40;100.00;99723.91;5051638;28;840;-57
2023/08/15 02:57:42;;;;;;;;;;;;;;;22.39;100.00;99725.19;5051791;28;806;-57
2023/08/15 03:00:09;;;;;;;;;;;;;;;22.40;100.00;99719.06;5051649;28;883;-57
2023/08/15 03:02:36;;;;;;;;;;;;;;;22.40;100.00;99721.88;5051656;28;832;-57
2023/08/15 03:05:03;;;;;;;;;;;;;;;22.39;100.00;99725.94;5051598;28;875;-57
2023/08/15 03:07:30;;;;;;;;;;;;;;;22.33;100.00;99721.50;5051893;28;883;-57
2023/08/15 03:09:57;;;;;;;;;;;;;;;22.28;100.00;99716.56;5051577;28;870;-56
2023/08/15 03:12:24;;;;;;;;;;;;;;;22.26;100.00;99719.06;5051703;28;1917;-57
2023/08/15 03:14:51;;;;;;;;;;;;;;;22.27;100.00;99723.44;5051796;28;844;-57
2023/08/15 03:17:19;;;;;;;;;;;;;;;22.27;100.00;99729.06;5051512;28;923;-57
2023/08/15 03:19:45;;;;;;;;;;;;;;;22.26;100.00;99725.47;5051496;28;922;-58
2023/08/15 03:22:12;;;;;;;;;;;;;;;22.32;100.00;99734.81;5051815;28;886;-57
2023/08/15 03:24:39;;;;;;;;;;;;;;;22.37;100.00;99724.88;5051336;28;831;-57
2023/08/15 03:27:06;;;;;;;;;;;;;;;22.36;100.00;99720.50;5051371;28;816;-57
2023/08/15 03:29:34;;;;;;;;;;;;;;;22.25;100.00;99726.72;5051471;28;847;-57
2023/08/15 03:32:01;;;;;;;;;;;;;;;22.13;100.00;99717.28;5051325;28;1951;-58
2023/08/15 03:34:28;;;;;;;;;;;;;;;22.10;100.00;99723.88;5051371;28;854;-57
2023/08/15 03:36:55;;;;;;;;;;;;;;;22.16;100.00;99712.72;5051343;28;816;-58
2023/08/15 03:39:22;;;;;;;;;;;;;;;22.26;100.00;99721.91;5050062;28;1215;-57
2023/08/15 03:41:49;;;;;;;;;;;;;;;22.31;100.00;99707.13;5051305;28;906;-56
2023/08/15 03:44:16;;;;;;;;;;;;;;;22.35;100.00;99700.03;5051117;28;1309;-58
2023/08/15 03:46:42;;;;;;;;;;;;;;;22.43;100.00;99717.31;5051189;28;840;-57
2023/08/15 03:49:09;;;;;;;;;;;;;;;22.58;100.00;99701.16;5051256;28;840;-58
2023/08/15 03:51:36;;;;;;;;;;;;;;;22.70;100.00;99693.66;5051081;28;1918;-56
2023/08/15 03:54:04;;;;;;;;;;;;;;;22.72;100.00;99696.75;5051200;28;872;-57
2023/08/15 03:56:30;;;;;;;;;;;;;;;22.81;100.00;99709.97;5054833;28;828;-56
2023/08/15 03:58:57;;;;;;;;;;;;;;;22.83;100.00;99702.59;5054887;28;868;-57
2023/08/15 04:01:23;;;;;;;;;;;;;;;22.84;100.00;99723.06;5054911;28;910;-58
2023/08/15 04:03:50;;;;;;;;;;;;;;;22.89;100.00;99705.47;5054842;28;859;-56
2023/08/15 04:06:16;;;;;;;;;;;;;;;22.94;100.00;99720.91;5054786;28;903;-57
2023/08/15 04:08:42;;;;;;;;;;;;;;;23.01;100.00;99709.25;5054654;28;917;-56
2023/08/15 04:11:09;;;;;;;;;;;;;;;23.06;100.00;99710.59;5054689;28;1926;-56
2023/08/15 04:13:35;;;;;;;;;;;;;;;23.13;100.00;99713.00;5054635;28;953;-57
2023/08/15 04:16:02;;;;;;;;;;;;;;;23.21;100.00;99709.28;5054630;28;816;-56
2023/08/15 04:18:35;;;;;;;;;;;;;;;23.27;100.00;99702.94;5054564;28;891;-56
2023/08/15 04:21:01;;;;;;;;;;;;;;;23.27;100.00;99700.88;5054434;28;828;-56
2023/08/15 04:23:28;;;;;;;;;;;;;;;23.27;100.00;99698.06;5054413;28;824;-57
2023/08/15 04:25:56;;;;;;;;;;;;;;;23.33;100.00;99701.75;5053002;28;903;-56
2023/08/15 04:28:23;;;;;;;;;;;;;;;23.33;100.00;99709.44;5054293;28;883;-57
2023/08/15 04:30:50;;;;;;;;;;;;;;;23.39;100.00;99727.97;5054396;28;1898;-57
2023/08/15 04:33:16;;;;;;;;;;;;;;;23.42;100.00;99715.69;5054277;28;800;-58
2023/08/15 04:35:43;;;;;;;;;;;;;;;23.51;100.00;99720.41;5054215;28;1124;-57
2023/08/15 04:38:10;;;;;;;;;;;;;;;23.59;100.00;99698.97;5054220;28;945;-57
2023/08/15 04:40:40;;;;;;;;;;;;;;;23.67;100.00;99687.25;5054096;28;864;-57
2023/08/15 04:43:07;;;;;;;;;;;;;;;23.76;100.00;99690.72;5054145;28;1217;-58
2023/08/15 04:45:44;;;;;;;;;;;;;;;23.78;100.00;99676.88;5054277;28;900;-57
2023/08/15 04:48:12;;;;;;;;;;;;;;;23.81;100.00;99692.84;5052585;28;1488;-57
2023/08/15 04:50:39;;;;;;;;;;;;;;;23.92;100.00;99688.56;5053873;28;1922;-58
2023/08/15 04:53:06;;;;;;;;;;;;;;;24.00;100.00;99690.47;5053816;28;834;-58
2023/08/15 04:55:34;;;;;;;;;;;;;;;24.09;100.00;99683.88;5053906;28;891;-56
2023/08/15 04:58:01;;;;;;;;;;;;;;;24.17;100.00;99692.66;5053890;28;840;-57
2023/08/15 05:00:28;;;;;;;;;;;;;;;24.23;100.00;99693.47;5053769;28;899;-57
2023/08/15 05:02:54;;;;;;;;;;;;;;;24.36;100.00;99691.03;5053684;28;860;-57
2023/08/15 05:05:21;;;;;;;;;;;;;;;24.41;100.00;99690.31;5053672;28;894;-57
2023/08/15 05:07:48;;;;;;;;;;;;;;;24.50;100.00;99671.66;5052969;28;928;-60
2023/08/15 05:10:14;;;;;;;;;;;;;;;24.62;100.00;99693.03;5053682;28;831;-57
2023/08/15 05:12:41;;;;;;;;;;;;;;;24.85;100.00;99685.50;5053317;28;1941;-56
2023/08/15 05:15:09;;;;;;;;;;;;;;;24.99;100.00;99689.44;5053556;28;815;-57
2023/08/15 05:21:02;;;;;;;;;;;;;;;25.06;100.00;99686.91;5053061;28;705;-56
2023/08/15 05:23:29;;;;;;;;;;;;;;;25.00;100.00;99690.97;5051836;28;2363;-56
2023/08/15 05:25:55;;;;;;;;;;;;;;;25.18;100.00;99696.22;5053262;28;956;-56
2023/08/15 05:28:22;;;;;;;;;;;;;;;25.26;100.00;99707.84;5053241;28;894;-55
2023/08/15 05:30:48;;;;;;;;;;;;;;;25.38;100.00;99689.63;5053120;28;1959;-56
2023/08/15 05:33:15;;;;;;;;;;;;;;;25.69;100.00;99696.44;5053060;28;823;-56
2023/08/15 05:35:42;;;;;;;;;;;;;;;26.00;100.00;99689.06;5053185;28;819;-57
2023/08/15 05:38:10;;;;;;;;;;;;;;;26.39;100.00;99699.63;5053002;28;800;-56
2023/08/15 05:40:38;;;;;;;;;;;;;;;26.98;100.00;99698.56;5052987;28;883;-56
2023/08/15 05:43:04;;;;;;;;;;;;;;;26.99;100.00;99693.66;5052693;28;1288;-57
2023/08/15 05:45:32;;;;;;;;;;;;;;;27.26;100.00;99707.00;5052937;28;866;-57
2023/08/15 05:47:59;;;;;;;;;;;;;;;27.34;100.00;99704.41;5053111;28;875;-57
2023/08/15 05:50:26;;;;;;;;;;;;;;;27.57;100.00;99716.44;5052916;28;808;-57
2023/08/15 05:52:52;;;;;;;;;;;;;;;27.46;100.00;99710.81;5052587;28;1910;-57
2023/08/15 05:55:19;;;;;;;;;;;;;;;27.14;100.00;99710.38;5052902;28;882;-57
2023/08/15 05:57:46;;;;;;;;;;;;;;;27.02;100.00;99716.09;5052660;28;863;-57
2023/08/15 06:00:13;;;;;;;;;;;;;;;26.88;100.00;99700.13;5052693;28;891;-57
2023/08/15 06:02:40;;;;;;;;;;;;;;;26.78;100.00;99690.34;5052518;28;861;-56
2023/08/15 06:05:07;;;;;;;;;;;;;;;26.88;100.00;99666.91;5052639;28;844;-57
2023/08/15 06:10:37;;;;;;;;;;;;;;;27.55;100.00;99664.34;5051870;28;1973;-56
2023/08/15 06:13:04;;;;;;;;;;;;;;;27.61;100.00;99657.34;5052593;28;896;-56
2023/08/15 06:15:31;;;;;;;;;;;;;;;27.66;100.00;99653.69;5052569;28;1262;-57
2023/08/15 06:17:58;;;;;;;;;;;;;;;27.08;100.00;99645.94;5051816;28;879;-57
2023/08/15 06:20:25;;;;;;;;;;;;;;;26.66;100.00;99655.59;5052256;28;840;-56
2023/08/15 06:22:51;;;;;;;;;;;;;;;26.47;100.00;99675.94;5052241;28;883;-56
2023/08/15 06:25:17;;;;;;;;;;;;;;;26.48;100.00;99703.00;5052267;28;1249;-57
2023/08/15 06:27:44;;;;;;;;;;;;;;;26.75;100.00;99717.69;5052240;28;899;-57
2023/08/15 06:30:11;;;;;;;;;;;;;;;27.45;100.00;99712.88;5052078;28;891;-56
2023/08/15 06:32:38;;;;;;;;;;;;;;;28.10;100.00;99747.66;5052261;28;1911;-57
2023/08/15 06:35:06;;;;;;;;;;;;;;;28.89;100.00;99747.84;5052061;28;927;-56
2023/08/15 06:37:32;;;;;;;;;;;;;;;29.83;99.28;99723.75;5051916;28;854;-57
2023/08/15 06:39:59;;;;;;;;;;;;;;;30.65;96.09;99715.75;5051973;28;812;-56
2023/08/15 06:42:26;;;;;;;;;;;;;;;30.99;92.70;99714.41;5051729;28;1495;-57
2023/08/15 06:45:12;;;;;;;;;;;;;;;30.64;90.67;99710.59;5051959;28;844;-57
2023/08/15 06:47:40;;;;;;;;;;;;;;;29.92;94.29;99731.91;5051842;28;876;-56
2023/08/15 06:50:08;;;;;;;;;;;;;;;29.67;93.97;99753.97;5051887;28;847;-56
2023/08/15 06:52:35;;;;;;;;;;;;;;;29.68;94.67;99752.69;5051551;28;1914;-56
2023/08/15 06:55:06;;;;;;;;;;;;;;;30.01;90.85;99730.75;5051811;28;899;-56
2023/08/15 06:57:33;;;;;;;;;;;;;;;30.26;86.91;99700.06;5051671;28;939;-56
2023/08/15 07:00:00;;;;;;;;;;;;;;;30.41;86.74;99711.00;5052092;28;864;-56
2023/08/15 07:02:27;;;;;;;;;;;;;;;29.77;87.99;99711.69;5051689;28;942;-57
2023/08/15 07:04:54;;;;;;;;;;;;;;;29.06;89.04;99692.81;5051678;28;813;-57
2023/08/15 07:07:21;;;;;;;;;;;;;;;28.45;90.73;99663.72;5051728;28;820;-57
2023/08/15 07:09:49;;;;;;;;;;;;;;;28.15;92.87;99630.38;5051913;28;828;-57
2023/08/15 07:12:18;;;;;;;;;;;;;;;27.91;92.67;99616.91;5051892;28;1886;-57
2023/08/15 07:14:46;;;;;;;;;;;;;;;27.74;92.98;99625.50;5051612;28;906;-57
2023/08/15 07:17:12;;;;;;;;;;;;;;;27.83;93.07;99625.19;5051641;28;843;-57
2023/08/15 07:19:39;;;;;;;;;;;;;;;28.31;90.96;99677.00;5051453;28;878;-57
2023/08/15 07:22:06;;;;;;;;;;;;;;;28.70;88.84;99690.88;5051709;28;867;-57
2023/08/15 07:24:33;;;;;;;;;;;;;;;29.25;87.58;99705.06;5050162;28;1340;-56
2023/08/15 07:27:00;;;;;;;;;;;;;;;29.89;82.85;99701.66;5051858;28;848;-57
2023/08/15 07:29:26;;;;;;;;;;;;;;;30.22;80.71;99687.44;5052015;28;893;-56
2023/08/15 07:31:53;;;;;;;;;;;;;;;31.32;75.80;99676.63;5055402;28;1890;-57
2023/08/15 07:34:20;;;;;;;;;;;;;;;32.07;68.15;99685.13;5055409;28;879;-56
2023/08/15 07:36:46;;;;;;;;;;;;;;;31.29;68.80;99683.44;5055360;28;859;-58
2023/08/15 07:39:13;;;;;;;;;;;;;;;30.58;68.46;99667.94;5055395;28;875;-57
2023/08/15 07:41:41;;;;;;;;;;;;;;;31.02;66.42;99679.81;5055227;28;922;-57
2023/08/15 07:44:08;;;;;;;;;;;;;;;30.63;65.86;99686.25;5055310;28;1280;-57
2023/08/15 07:46:36;;;;;;;;;;;;;;;29.87;67.34;99672.94;5055211;28;1031;-58
2023/08/15 07:49:03;;;;;;;;;;;;;;;29.50;69.16;99685.84;5055157;28;831;-57
2023/08/15 07:51:31;;;;;;;;;;;;;;;29.41;69.73;99677.69;5053580;28;1977;-57
2023/08/15 07:53:58;;;;;;;;;;;;;;;29.53;68.74;99684.00;5055167;28;898;-57
2023/08/15 07:56:24;;;;;;;;;;;;;;;30.05;67.20;99671.38;5055033;28;879;-56
2023/08/15 07:58:51;;;;;;;;;;;;;;;31.62;62.37;99663.28;5054974;28;879;-57
2023/08/15 08:01:19;;;;;;;;;;;;;;;32.29;60.14;99660.97;5054772;28;827;-57
2023/08/15 08:03:45;;;;;;;;;;;;;;;33.04;57.42;99675.63;5054927;28;824;-56
2023/08/15 08:06:12;;;;;;;;;;;;;;;32.86;56.54;99663.09;5055094;28;824;-57
2023/08/15 08:08:39;;;;;;;;;;;;;;;32.90;57.54;99658.59;5054808;28;844;-57
2023/08/15 08:11:06;;;;;;;;;;;;;;;33.33;55.40;99634.19;5054709;28;1949;-58
2023/08/15 08:13:33;;;;;;;;;;;;;;;33.76;55.78;99669.13;5054668;28;812;-57
2023/08/15 08:22:05;;;;;;;;;;;;;;;33.56;53.45;99660.06;5054088;28;705;-57
2023/08/15 08:24:32;;;;;;;;;;;;;;;33.34;53.69;99718.00;5054723;28;856;-58
2023/08/15 08:30:17;;;;;;;;;;;;;;;30.78;60.28;99677.91;5053667;28;637;-58
2023/08/15 08:32:44;;;;;;;;;;;;;;;29.87;63.52;99657.91;5054415;28;1902;-58
2023/08/15 08:35:11;;;;;;;;;;;;;;;29.52;65.23;99645.47;5054419;28;832;-58
2023/08/15 08:37:38;;;;;;;;;;;;;;;29.34;66.47;99643.38;5054526;28;844;-60
2023/08/15 08:40:05;;;;;;;;;;;;;;;29.24;66.82;99632.38;5052967;28;888;-58
2023/08/15 08:42:32;;;;;;;;;;;;;;;29.31;67.47;99660.22;5053292;28;1193;-57
2023/08/15 08:45:00;;;;;;;;;;;;;;;29.29;67.13;99687.69;5054424;28;859;-58
2023/08/15 08:47:28;;;;;;;;;;;;;;;29.54;67.25;99693.34;5054126;28;835;-59
2023/08/15 08:49:55;;;;;;;;;;;;;;;30.37;64.72;99696.28;5053939;28;923;-58
2023/08/15 08:52:22;;;;;;;;;;;;;;;31.51;60.41;99690.00;5053794;28;1906;-58
2023/08/15 08:54:49;;;;;;;;;;;;;;;32.64;58.26;99695.97;5053950;28;855;-57
2023/08/15 08:57:18;;;;;;;;;;;;;;;33.65;55.95;99735.34;5053943;28;891;-57
2023/08/15 08:59:45;;;;;;;;;;;;;;;34.23;52.85;99722.38;5053882;28;983;-57
2023/08/15 09:02:19;;;;;;;;;;;;;;;34.22;52.15;99712.22;5053745;28;820;-58
2023/08/15 09:04:45;;;;;;;;;;;;;;;33.73;52.60;99716.84;5053690;28;967;-58
2023/08/15 09:07:11;;;;;;;;;;;;;;;33.56;53.03;99716.56;5053733;28;815;-58
2023/08/15 09:09:37;;;;;;;;;;;;;;;33.48;53.90;99705.09;5053664;28;889;-57
2023/08/15 09:12:06;;;;;;;;;;;;;;;33.60;53.59;99717.00;5053655;28;1953;-58
2023/08/15 09:14:32;;;;;;;;;;;;;;;34.00;52.74;99735.88;5053529;28;949;-58
2023/08/15 09:16:59;;;;;;;;;;;;;;;33.86;52.95;99715.94;5053536;28;891;-57
2023/08/15 09:19:26;;;;;;;;;;;;;;;33.43;53.12;99708.13;5053394;28;816;-58
2023/08/15 09:21:53;;;;;;;;;;;;;;;32.87;54.93;99704.72;5053429;28;819;-58
2023/08/15 09:24:25;;;;;;;;;;;;;;;32.25;56.35;99692.75;5052014;28;1172;-57
2023/08/15 09:26:51;;;;;;;;;;;;;;;32.21;56.68;99689.47;5053281;28;844;-58
2023/08/15 09:29:18;;;;;;;;;;;;;;;32.94;55.26;99681.84;5053323;28;816;-61
2023/08/15 09:31:44;;;;;;;;;;;;;;;32.90;54.83;99698.66;5053058;28;1939;-58
2023/08/15 09:34:12;;;;;;;;;;;;;;;32.40;56.28;99709.28;5053161;28;895;-58
2023/08/15 09:36:40;;;;;;;;;;;;;;;32.57;57.05;99699.53;5053070;28;855;-57
2023/08/15 09:39:08;;;;;;;;;;;;;;;32.93;56.72;99693.88;5053152;28;867;-57
2023/08/15 09:41:40;;;;;;;;;;;;;;;33.01;55.89;99682.47;5053007;28;1023;-57
2023/08/15 09:44:07;;;;;;;;;;;;;;;33.03;55.80;99692.06;5053000;28;1457;-57
2023/08/15 09:46:35;;;;;;;;;;;;;;;33.53;54.50;99672.63;5053171;28;863;-57
2023/08/15 09:49:02;;;;;;;;;;;;;;;33.43;54.11;99622.94;5053005;28;836;-57
2023/08/15 09:51:28;;;;;;;;;;;;;;;32.96;55.80;99629.78;5053092;28;1906;-58
2023/08/15 09:53:56;;;;;;;;;;;;;;;33.10;56.13;99664.81;5052899;28;906;-57
2023/08/15 09:56:22;;;;;;;;;;;;;;;33.32;55.42;99649.84;5052992;28;841;-57
2023/08/15 09:58:49;;;;;;;;;;;;;;;33.72;55.03;99637.97;5052961;28;871;-57
2023/08/15 10:01:18;;;;;;;;;;;;;;;34.29;53.60;99657.00;5052914;28;845;-57
2023/08/15 10:03:46;;;;;;;;;;;;;;;34.58;52.87;99683.38;5051293;28;954;-58
2023/08/15 10:06:14;;;;;;;;;;;;;;;34.54;53.12;99705.94;5052570;28;860;-58
2023/08/15 10:08:42;;;;;;;;;;;;;;;34.44;53.10;99684.91;5052416;28;899;-57
2023/08/15 10:42:23;;;;;;;;;;;;;;;33.59;56.64;99692.53;5816396;22;1936;-58
2023/08/15 10:44:59;;;;;;;;;;;;;;;33.10;57.85;99682.75;5014453;28;861;-58
2023/08/15 10:47:24;;;;;;;;;;;;;;;32.66;59.34;99687.59;5032314;28;855;-58
2023/08/15 10:52:59;;;;;;;;;;;;;;;32.53;60.32;99705.59;5017909;28;1971;-58
2023/08/15 10:55:27;;;;;;;;;;;;;;;33.34;58.98;99700.81;5012112;28;887;-58
2023/08/15 10:57:57;;;;;;;;;;;;;;;33.82;56.80;99709.84;5012147;28;907;-57
2023/08/15 11:00:23;;;;;;;;;;;;;;;33.72;57.30;99692.41;5012171;28;836;-57
2023/08/15 11:02:51;;;;;;;;;;;;;;;33.81;57.08;99676.00;4994450;28;1177;-57
2023/08/15 11:17:27;;;;;;;;;;;;;;;34.47;54.79;99645.72;5031201;28;721;-58
2023/08/15 11:19:54;;;;;;;;;;;;;;;34.60;54.74;99653.34;5031682;28;835;-58
2023/08/15 11:22:21;;;;;;;;;;;;;;;34.94;53.74;99664.41;5031636;28;860;-58
2023/08/15 11:24:51;;;;;;;;;;;;;;;34.48;54.31;99653.75;5031655;28;960;-58
2023/08/15 11:27:17;;;;;;;;;;;;;;;33.91;56.08;99660.56;5031549;28;939;-57
2023/08/15 11:29:43;;;;;;;;;;;;;;;33.89;56.31;99663.22;5031525;28;906;-57
2023/08/15 11:32:10;;;;;;;;;;;;;;;34.58;55.09;99663.28;5031554;28;1898;-57
2023/08/15 11:34:39;;;;;;;;;;;;;;;34.70;54.17;99665.81;5031448;28;836;-58
2023/08/15 11:37:09;;;;;;;;;;;;;;;34.52;54.09;99671.31;5031559;28;1057;-58
2023/08/15 11:39:36;;;;;;;;;;;;;;;34.61;55.05;99678.59;5031366;28;900;-58
2023/08/15 11:42:03;;;;;;;;;;;;;;;34.61;54.85;99660.59;5031491;28;908;-58
2023/08/15 11:44:29;;;;;;;;;;;;;;;35.00;54.45;99649.84;5031269;28;1272;-57
2023/08/15 11:46:56;;;;;;;;;;;;;;;35.53;53.85;99660.41;5031319;28;816;-57
2023/08/15 11:49:23;;;;;;;;;;;;;;;35.25;53.00;99661.47;5031404;28;918;-57
2023/08/15 11:51:50;;;;;;;;;;;;;;;34.97;53.62;99666.91;5031225;28;1914;-57
2023/08/15 11:54:16;;;;;;;;;;;;;;;35.06;54.13;99668.41;5031592;28;872;-57
2023/08/15 11:56:49;;;;;;;;;;;;;;;35.42;52.71;99666.56;5031651;28;861;-57
2023/08/15 11:59:22;;;;;;;;;;;;;;;35.61;52.80;99640.22;5031356;28;844;-57
2023/08/15 12:01:49;;;;;;;;;;;;;;;35.97;51.77;99659.97;5031273;28;895;-57
2023/08/15 12:04:18;;;;;;;;;;;;;;;36.61;51.37;99666.22;5031205;28;832;-57
2023/08/15 12:09:48;;;;;;;;;;;;;;;36.89;50.70;99667.09;5031294;28;827;-57
2023/08/15 12:12:20;;;;;;;;;;;;;;;37.18;49.74;99652.97;5031001;28;1890;-59
2023/08/15 12:14:46;;;;;;;;;;;;;;;37.16;49.48;99652.81;5013548;28;1300;-58
2023/08/15 12:17:13;;;;;;;;;;;;;;;36.75;49.86;99658.03;5032636;28;974;-58
2023/08/15 12:19:39;;;;;;;;;;;;;;;36.97;48.24;99657.03;5034597;28;898;-58
2023/08/15 12:22:06;;;;;;;;;;;;;;;37.03;47.28;99662.53;5034613;28;812;-58
2023/08/15 12:24:33;;;;;;;;;;;;;;;37.10;45.92;99672.47;5034837;28;875;-58
2023/08/15 12:27:01;;;;;;;;;;;;;;;37.47;46.36;99682.03;5034498;28;873;-58
2023/08/15 12:29:28;;;;;;;;;;;;;;;37.62;45.38;99668.78;5034521;28;891;-58
2023/08/15 12:31:55;;;;;;;;;;;;;;;37.29;45.96;99660.34;5034278;28;1894;-59
2023/08/15 12:34:21;;;;;;;;;;;;;;;37.52;45.74;99671.59;5034424;28;837;-59
2023/08/15 12:36:48;;;;;;;;;;;;;;;37.69;45.45;99673.69;5034218;28;842;-58
2023/08/15 12:39:16;;;;;;;;;;;;;;;37.38;46.16;99674.84;5034435;28;832;-59
2023/08/15 12:41:43;;;;;;;;;;;;;;;37.05;45.30;99673.47;5034188;28;910;-58
2023/08/15 12:44:09;;;;;;;;;;;;;;;36.91;46.30;99675.91;5034022;28;1231;-59
2023/08/15 12:46:36;;;;;;;;;;;;;;;37.00;46.45;99675.25;5034201;28;863;-58
2023/08/15 12:49:02;;;;;;;;;;;;;;;37.07;46.63;99680.16;5034326;28;835;-58
2023/08/15 12:51:29;;;;;;;;;;;;;;;37.11;45.69;99677.66;5034043;28;1989;-58
2023/08/15 12:53:56;;;;;;;;;;;;;;;36.88;46.40;99668.47;5034404;28;926;-59
2023/08/15 12:56:23;;;;;;;;;;;;;;;36.85;46.78;99672.50;5033921;28;859;-58
2023/08/15 12:58:49;;;;;;;;;;;;;;;36.92;46.76;99671.69;5033955;28;864;-58
2023/08/15 13:01:16;;;;;;;;;;;;;;;36.52;47.62;99672.63;5033964;28;879;-58
2023/08/15 13:03:44;;;;;;;;;;;;;;;35.96;49.08;99656.34;5033790;28;916;-58
2023/08/15 13:06:10;;;;;;;;;;;;;;;36.77;48.08;99658.97;5034125;28;855;-59
2023/08/15 13:08:36;;;;;;;;;;;;;;;36.35;48.89;99653.94;5033748;28;820;-58
2023/08/15 13:11:04;;;;;;;;;;;;;;;35.95;49.76;99649.06;5033563;28;1955;-58
2023/08/15 13:13:31;;;;;;;;;;;;;;;35.90;50.03;99655.78;5033749;28;825;-58
2023/08/15 13:15:57;;;;;;;;;;;;;;;36.22;50.05;99659.25;5033629;28;824;-57
2023/08/15 13:18:24;;;;;;;;;;;;;;;36.19;50.14;99661.19;5033573;28;854;-58
2023/08/15 13:20:51;;;;;;;;;;;;;;;35.84;50.51;99649.50;5015744;28;1186;-58
2023/08/15 13:23:18;;;;;;;;;;;;;;;35.50;52.51;99662.31;5033503;28;923;-58
2023/08/15 13:25:45;;;;;;;;;;;;;;;35.81;51.75;99667.19;5033405;28;854;-59
2023/08/15 13:28:12;;;;;;;;;;;;;;;35.22;53.58;99669.13;5033081;28;863;-58
2023/08/15 13:30:40;;;;;;;;;;;;;;;35.04;54.50;99668.22;5033293;28;874;-58
2023/08/15 13:33:06;;;;;;;;;;;;;;;35.37;53.63;99656.81;5033361;28;1874;-59
2023/08/15 13:35:33;;;;;;;;;;;;;;;35.01;54.14;99665.72;5033202;28;880;-59
2023/08/15 13:37:59;;;;;;;;;;;;;;;34.95;54.89;99645.81;5015455;28;1200;-58
2023/08/15 13:40:26;;;;;;;;;;;;;;;35.19;54.18;99653.06;5033178;28;816;-57
2023/08/15 13:42:53;;;;;;;;;;;;;;;35.39;53.81;99659.88;5033195;28;1360;-57
2023/08/15 13:45:20;;;;;;;;;;;;;;;35.34;53.81;99655.88;5033207;28;844;-58
2023/08/15 13:47:46;;;;;;;;;;;;;;;34.92;54.70;99667.09;5015262;28;812;-59
2023/08/15 13:50:13;;;;;;;;;;;;;;;34.44;56.08;99664.84;5015235;28;1373;-59
2023/08/15 13:52:40;;;;;;;;;;;;;;;34.21;57.17;99673.44;5033031;28;1899;-57
2023/08/15 13:55:07;;;;;;;;;;;;;;;34.15;57.42;99661.38;5033072;28;870;-57
2023/08/15 13:57:34;;;;;;;;;;;;;;;34.36;57.13;99659.09;5033034;28;943;-57
2023/08/15 14:00:02;;;;;;;;;;;;;;;34.62;56.79;99645.69;5032862;28;801;-57
2023/08/15 14:02:29;;;;;;;;;;;;;;;34.84;55.43;99647.00;5032650;28;900;-57
2023/08/15 14:04:56;;;;;;;;;;;;;;;34.63;56.27;99655.88;5032610;28;919;-57
2023/08/15 14:07:23;;;;;;;;;;;;;;;34.42;56.87;99655.25;5032857;28;872;-58